Time;durP1;ratioP1;P1;durP2;ratioP2;P2;SDS_P1;SDS_P2;PMS_P1;PMS_P2;Temp;Humidity;BMP_temperature;BMP_pressure;BME280_temperature;BME280_humidity;BME280_pressure;Samples;Min_cycle;Max_cycle;Signal;HPM_P1;HPM_P2
2022/04/01 00:01:06;;;;;;;3.03;2.17;;;;;;;2.92;64.17;98626.72;5091291;28;20048;-55
2022/04/01 00:03:33;;;;;;;2.88;1.88;;;;;;;2.91;63.92;98625.88;5091766;28;20081;-60
2022/04/01 00:06:00;;;;;;;3.05;2.42;;;;;;;2.91;63.89;98627.63;5091297;28;20044;-58
2022/04/01 00:08:26;;;;;;;3.40;2.10;;;;;;;2.89;63.33;98622.50;5091305;28;20056;-55
2022/04/01 00:10:53;;;;;;;2.33;1.73;;;;;;;2.88;63.96;98638.16;5091535;28;20097;-56
2022/04/01 00:13:19;;;;;;;3.95;2.33;;;;;;;2.85;63.83;98631.34;5091265;28;20040;-58
2022/04/01 00:15:46;;;;;;;2.58;2.13;;;;;;;2.83;63.92;98630.53;5090101;28;20048;-61
2022/04/01 00:18:13;;;;;;;3.50;2.40;;;;;;;2.81;63.93;98632.38;5091176;28;20047;-58
2022/04/01 00:20:40;;;;;;;3.83;2.30;;;;;;;2.81;64.49;98640.19;5090903;28;20040;-59
2022/04/01 00:23:06;;;;;;;3.38;2.10;;;;;;;2.81;64.39;98640.19;5091444;28;20056;-53
2022/04/01 00:25:33;;;;;;;2.83;2.20;;;;;;;2.81;64.38;98641.00;5091115;28;20442;-55
2022/04/01 00:27:59;;;;;;;4.40;2.30;;;;;;;2.80;64.59;98644.53;5089830;28;20463;-59
2022/04/01 00:30:26;;;;;;;3.20;2.28;;;;;;;2.80;64.53;98643.69;5090746;28;20481;-58
2022/04/01 00:32:52;;;;;;;3.53;2.42;;;;;;;2.79;64.67;98639.38;5090938;28;20040;-59
2022/04/01 00:35:19;;;;;;;3.55;2.15;;;;;;;2.78;64.57;98641.16;5090907;28;20124;-55
2022/04/01 00:37:46;;;;;;;2.72;2.10;;;;;;;2.77;64.91;98638.63;5090864;28;20504;-60
2022/04/01 00:40:12;;;;;;;3.58;2.38;;;;;;;2.74;64.56;98635.22;5090385;28;20048;-60
2022/04/01 00:42:41;;;;;;;3.15;2.10;;;;;;;2.73;64.73;98637.91;5090687;28;20066;-59
2022/04/01 00:45:10;;;;;;;3.42;2.40;;;;;;;2.74;64.91;98650.00;5089389;28;20515;-55
2022/04/01 00:47:38;;;;;;;4.35;2.30;;;;;;;2.71;64.90;98645.78;5089437;28;20048;-57
2022/04/01 00:50:06;;;;;;;3.88;2.40;;;;;;;2.71;64.88;98650.97;5089267;28;20496;-57
2022/04/01 00:52:33;;;;;;;2.92;2.15;;;;;;;2.70;64.28;98638.88;5089485;28;20130;-56
2022/04/01 00:55:01;;;;;;;2.55;2.05;;;;;;;2.70;64.79;98653.63;5090470;28;20109;-57
2022/04/01 00:57:27;;;;;;;3.40;2.42;;;;;;;2.69;64.90;98665.78;5089670;28;20277;-58
2022/04/01 00:59:54;;;;;;;2.65;2.25;;;;;;;2.69;65.16;98657.97;5089376;28;20066;-58
2022/04/01 01:02:25;;;;;;;2.83;2.05;;;;;;;2.69;64.69;98664.94;5090620;28;20483;-55
2022/04/01 01:04:51;;;;;;;3.10;2.25;;;;;;;2.69;65.09;98662.34;5085790;28;20323;-60
2022/04/01 01:07:18;;;;;;;2.45;1.77;;;;;;;2.68;65.36;98660.63;5080851;28;20051;-59
2022/04/01 01:09:45;;;;;;;3.85;2.15;;;;;;;2.67;65.14;98665.00;5089842;28;20101;-59
2022/04/01 01:12:11;;;;;;;3.53;2.28;;;;;;;2.66;64.80;98662.47;5090355;28;20102;-60
2022/04/01 01:14:40;;;;;;;3.10;2.03;;;;;;;2.63;65.26;98673.84;5090207;28;20052;-56
2022/04/01 01:17:12;;;;;;;3.13;2.35;;;;;;;2.62;64.94;98664.34;5088672;28;20044;-58
2022/04/01 01:19:40;;;;;;;2.22;2.03;;;;;;;2.60;65.58;98661.81;5089988;28;20044;-59
2022/04/01 01:22:08;;;;;;;3.05;1.85;;;;;;;2.59;64.88;98672.28;5089205;28;20393;-59
2022/04/01 01:24:36;;;;;;;3.80;2.15;;;;;;;2.57;65.66;98676.66;5089031;28;20082;-61
2022/04/01 01:27:06;;;;;;;3.00;2.30;;;;;;;2.56;65.34;98675.84;5088419;28;20044;-60
2022/04/01 01:29:35;;;;;;;4.32;2.13;;;;;;;2.54;65.46;98674.22;5088729;28;20093;-57
2022/04/01 01:32:04;;;;;;;3.83;2.05;;;;;;;2.53;65.41;98677.69;5088772;28;20052;-59
2022/04/01 01:34:35;;;;;;;3.03;2.17;;;;;;;2.52;65.14;98683.81;5088768;28;20056;-59
2022/04/01 01:37:02;;;;;;;2.67;1.90;;;;;;;2.52;65.53;98686.41;5089000;28;20047;-57
2022/04/01 01:39:30;;;;;;;4.72;2.20;;;;;;;2.51;65.26;98674.34;5088649;28;20048;-57
2022/04/01 01:41:57;;;;;;;6.47;2.22;;;;;;;2.48;65.76;98683.94;5088640;28;20044;-56
2022/04/01 01:44:25;;;;;;;2.45;1.77;;;;;;;2.48;65.38;98683.09;5090108;28;20044;-54
2022/04/01 01:46:52;;;;;;;2.70;1.90;;;;;;;2.48;65.38;98677.91;5088570;28;20048;-58
2022/04/01 01:49:22;;;;;;;4.10;2.05;;;;;;;2.47;66.00;98687.44;5088574;28;20040;-56
2022/04/01 01:54:50;;;;;;;3.05;2.05;;;;;;;2.47;65.67;98689.22;5090152;28;20044;-55
2022/04/01 01:57:21;;;;;;;4.60;2.22;;;;;;;2.44;65.46;98684.97;5088849;28;21057;-57
2022/04/01 01:59:47;;;;;;;2.22;1.73;;;;;;;2.44;65.52;98687.56;5089544;28;20408;-56
2022/04/01 02:02:14;;;;;;;2.70;1.88;;;;;;;2.44;65.84;98692.75;5089643;28;20412;-60
2022/04/01 02:04:42;;;;;;;2.40;1.98;;;;;;;2.43;66.22;98695.44;5089788;28;20074;-58
2022/04/01 02:07:10;;;;;;;2.55;1.90;;;;;;;2.43;66.04;98688.47;5088485;28;20051;-60
2022/04/01 02:09:38;;;;;;;2.65;1.63;;;;;;;2.43;65.77;98692.84;5088167;28;20055;-58
2022/04/01 02:12:05;;;;;;;1.95;1.65;;;;;;;2.42;65.91;98686.78;5088211;28;20044;-58
2022/04/01 02:14:32;;;;;;;2.15;1.95;;;;;;;2.42;65.74;98701.53;5089986;28;20596;-55
2022/04/01 02:16:58;;;;;;;2.72;1.92;;;;;;;2.40;65.86;98701.59;5089720;28;20044;-59
2022/04/01 02:19:25;;;;;;;2.65;2.00;;;;;;;2.39;65.86;98699.91;5089411;28;20044;-53
2022/04/01 02:21:53;;;;;;;2.55;2.10;;;;;;;2.39;65.74;98699.06;5088505;28;20047;-59
2022/04/01 02:24:22;;;;;;;5.00;1.75;;;;;;;2.39;65.94;98707.69;5088399;28;20055;-60
2022/04/01 02:26:49;;;;;;;2.55;1.70;;;;;;;2.37;66.28;98706.91;5089381;28;20408;-59
2022/04/01 02:29:19;;;;;;;2.55;2.17;;;;;;;2.36;65.95;98702.63;5088099;28;20055;-57
2022/04/01 02:31:47;;;;;;;2.67;1.70;;;;;;;2.36;66.01;98705.25;5088343;28;20052;-56
2022/04/01 02:34:14;;;;;;;2.75;1.80;;;;;;;2.37;66.27;98712.13;5088342;28;20079;-57
2022/04/01 02:36:41;;;;;;;3.20;1.90;;;;;;;2.37;66.64;98699.13;5089457;28;20048;-56
2022/04/01 02:39:07;;;;;;;3.88;2.00;;;;;;;2.37;66.26;98704.31;5089108;28;20097;-59
2022/04/01 02:41:34;;;;;;;6.70;2.67;;;;;;;2.36;66.25;98702.63;5093130;28;20058;-55
2022/04/01 02:44:12;;;;;;;2.13;1.70;;;;;;;2.36;66.21;98706.97;5092018;28;20047;-59
2022/04/01 02:46:48;;;;;;;2.60;1.75;;;;;;;2.33;66.98;98705.34;5091793;28;20081;-60
2022/04/01 02:49:16;;;;;;;2.25;1.92;;;;;;;2.34;66.77;98701.84;5092749;28;20089;-58
2022/04/01 02:51:45;;;;;;;3.05;1.95;;;;;;;2.35;66.38;98706.13;5091943;28;20055;-56
2022/04/01 02:54:13;;;;;;;3.33;2.13;;;;;;;2.34;66.36;98704.44;5091555;28;20048;-60
2022/04/01 02:56:40;;;;;;;2.65;1.60;;;;;;;2.34;66.06;98720.03;5092831;28;20051;-59
2022/04/01 02:59:08;;;;;;;2.15;1.77;;;;;;;2.32;66.80;98714.88;5092719;28;20048;-60
2022/04/01 03:01:37;;;;;;;3.33;1.80;;;;;;;2.33;66.76;98718.34;5091277;28;20083;-57
2022/04/01 03:04:09;;;;;;;3.85;1.90;;;;;;;2.33;66.73;98715.75;5091305;28;20173;-59
2022/04/01 03:06:41;;;;;;;2.58;1.73;;;;;;;2.32;66.91;98717.47;5091300;28;20047;-59
2022/04/01 03:09:08;;;;;;;3.55;1.88;;;;;;;2.32;65.97;98711.47;5092321;28;20055;-59
2022/04/01 03:11:38;;;;;;;2.28;1.70;;;;;;;2.31;66.57;98715.78;5092301;28;20048;-59
2022/04/01 03:14:06;;;;;;;3.08;1.60;;;;;;;2.32;66.27;98716.66;5092217;28;20044;-58
2022/04/01 03:16:33;;;;;;;2.67;2.08;;;;;;;2.30;66.70;98708.91;5092229;28;20044;-55
2022/04/01 03:19:01;;;;;;;4.60;1.90;;;;;;;2.32;66.42;98722.66;5091864;28;20044;-57
2022/04/01 03:21:29;;;;;;;3.40;2.03;;;;;;;2.33;67.13;98720.94;5091079;28;20052;-59
2022/04/01 03:23:56;;;;;;;2.42;1.60;;;;;;;2.33;66.29;98719.16;5092198;28;20098;-58
2022/04/01 03:26:23;;;;;;;3.03;1.92;;;;;;;2.35;66.21;98724.31;5092070;28;20105;-56
2022/04/01 03:28:49;;;;;;;2.40;1.65;;;;;;;2.34;66.48;98726.06;5092079;28;20500;-59
2022/04/01 03:31:16;;;;;;;6.50;1.63;;;;;;;2.34;66.62;98730.41;5091786;28;20056;-59
2022/04/01 03:33:43;;;;;;;4.22;2.03;;;;;;;2.33;66.41;98728.72;5092200;28;20044;-59
2022/04/01 03:36:11;;;;;;;2.72;1.98;;;;;;;2.32;66.31;98733.06;5092349;28;20043;-61
2022/04/01 03:38:38;;;;;;;2.88;1.98;;;;;;;2.31;66.70;98735.72;5090831;28;20578;-59
2022/04/01 03:41:05;;;;;;;5.60;2.03;;;;;;;2.31;66.70;98740.91;5091619;28;20044;-59
2022/04/01 03:43:35;;;;;;;2.08;1.88;;;;;;;2.31;66.51;98738.31;5092086;28;20044;-59
2022/04/01 03:46:09;;;;;;;2.92;1.88;;;;;;;2.29;66.63;98734.94;5092280;28;20044;-62
2022/04/01 03:48:47;;;;;;;2.83;1.95;;;;;;;2.27;66.95;98747.97;5091976;28;20044;-58
2022/04/01 03:51:19;;;;;;;2.97;1.85;;;;;;;2.28;66.50;98741.88;5090178;28;20056;-59
2022/04/01 03:53:58;;;;;;;3.10;2.03;;;;;;;2.27;66.33;98741.94;5091952;28;20105;-59
2022/04/01 03:56:48;;;;;;;3.72;2.00;;;;;;;2.25;67.25;98746.34;5090641;28;20048;-58
2022/04/01 03:59:15;;;;;;;2.17;1.98;;;;;;;2.27;66.41;98739.34;5090263;28;20044;-61
2022/04/01 04:01:42;;;;;;;2.72;1.98;;;;;;;2.26;66.79;98748.03;5090304;28;20044;-57
2022/04/01 04:04:09;;;;;;;3.20;2.00;;;;;;;2.25;66.84;98751.56;5091731;28;20044;-56
2022/04/01 04:06:38;;;;;;;2.58;1.98;;;;;;;2.24;66.58;98745.50;5091563;28;20060;-55
2022/04/01 04:09:05;;;;;;;3.22;2.38;;;;;;;2.24;66.15;98748.09;5090099;28;20109;-58
2022/04/01 04:11:33;;;;;;;2.75;1.90;;;;;;;2.22;66.96;98747.31;5091423;28;20523;-56
2022/04/01 04:14:01;;;;;;;4.28;2.13;;;;;;;2.22;66.82;98753.34;5089905;28;20052;-57
2022/04/01 04:16:52;;;;;;;2.90;2.20;;;;;;;2.19;67.46;98758.69;5091449;28;20109;-58
2022/04/01 04:19:26;;;;;;;2.58;2.33;;;;;;;2.21;67.21;98759.44;5089945;28;20054;-57
2022/04/01 04:22:09;;;;;;;3.60;2.38;;;;;;;2.21;67.08;98756.84;5091472;28;20109;-58
2022/04/01 04:24:53;;;;;;;4.13;2.22;;;;;;;2.20;67.34;98762.09;5091337;28;20496;-59
2022/04/01 04:27:27;;;;;;;3.72;2.65;;;;;;;2.20;67.06;98764.69;5091202;28;20101;-58
2022/04/01 04:30:02;;;;;;;3.13;2.83;;;;;;;2.20;67.11;98759.50;5090108;28;20059;-57
2022/04/01 04:32:47;;;;;;;3.90;2.55;;;;;;;2.18;67.15;98775.16;5090205;28;20060;-56
2022/04/01 04:35:16;;;;;;;4.22;2.55;;;;;;;2.19;67.17;98774.25;5091129;28;20484;-58
2022/04/01 04:37:45;;;;;;;4.03;2.60;;;;;;;2.18;66.96;98772.56;5089815;28;20066;-57
2022/04/01 04:40:15;;;;;;;3.95;2.67;;;;;;;2.18;67.70;98782.97;5089706;28;20052;-59
2022/04/01 04:42:47;;;;;;;4.40;2.50;;;;;;;2.18;66.48;98780.38;5089695;28;20051;-59
2022/04/01 04:45:19;;;;;;;3.25;2.60;;;;;;;2.19;66.77;98783.78;5091271;28;20044;-58
2022/04/01 04:47:47;;;;;;;4.20;2.28;;;;;;;2.19;66.83;98784.63;5089611;28;20047;-60
2022/04/01 04:50:16;;;;;;;6.40;2.50;;;;;;;2.19;67.37;98776.00;5089403;28;20052;-59
2022/04/01 04:52:48;;;;;;;3.90;2.72;;;;;;;2.18;67.69;98785.56;5089795;28;20044;-58
2022/04/01 04:55:19;;;;;;;4.60;3.00;;;;;;;2.19;66.67;98779.44;5091030;28;20455;-58
2022/04/01 04:57:49;;;;;;;4.03;3.13;;;;;;;2.19;67.46;98786.38;5090814;28;20048;-59
2022/04/01 05:00:21;;;;;;;6.70;3.17;;;;;;;2.18;67.16;98785.56;5089083;28;20044;-58
2022/04/01 05:03:17;;;;;;;3.47;2.50;;;;;;;2.15;67.54;98787.41;5089964;28;20051;-57
2022/04/01 05:05:46;;;;;;;6.22;3.47;;;;;;;2.18;67.33;98788.16;5090743;28;20093;-59
2022/04/01 05:08:13;;;;;;;3.83;3.08;;;;;;;2.17;67.06;98796.81;5090233;28;20492;-59
2022/04/01 05:11:29;;;;;;;5.20;3.22;;;;;;;2.14;67.74;98798.69;5090264;28;20101;-58
2022/04/01 05:14:01;;;;;;;4.20;3.60;;;;;;;2.15;67.50;98795.19;5077815;28;20056;-54
2022/04/01 05:16:27;;;;;;;4.20;3.45;;;;;;;2.15;67.03;98806.44;5089340;28;20048;-58
2022/04/01 05:19:00;;;;;;;6.63;4.05;;;;;;;2.13;67.39;98805.63;5090405;28;20105;-60
2022/04/01 05:21:37;;;;;;;4.60;3.97;;;;;;;2.14;67.56;98812.53;5090143;28;20424;-58
2022/04/01 05:24:07;;;;;;;8.80;4.13;;;;;;;2.15;67.32;98824.59;5090397;28;20052;-61
2022/04/01 05:26:40;;;;;;;6.07;4.25;;;;;;;2.15;66.84;98819.41;5089248;28;20056;-60
2022/04/01 05:29:19;;;;;;;4.25;3.42;;;;;;;2.15;67.14;98813.38;5088858;28;20053;-63
2022/04/01 05:32:05;;;;;;;8.30;4.32;;;;;;;2.15;67.57;98819.41;5089111;28;20070;-59
2022/04/01 05:34:38;;;;;;;4.97;3.70;;;;;;;2.19;67.27;98825.31;5090304;28;20043;-56
2022/04/01 05:37:06;;;;;;;5.63;3.60;;;;;;;2.17;67.17;98838.38;5089047;28;20048;-58
2022/04/01 05:39:35;;;;;;;5.63;3.95;;;;;;;2.20;67.62;98837.41;5089552;28;20052;-54
2022/04/01 05:42:07;;;;;;;5.28;3.90;;;;;;;2.21;67.65;98839.13;5088616;28;20454;-56
2022/04/01 05:44:34;;;;;;;4.38;3.53;;;;;;;2.24;67.50;98848.53;5088585;28;20052;-58
2022/04/01 05:47:03;;;;;;;5.35;4.03;;;;;;;2.22;67.41;98848.59;5090406;28;20040;-57
2022/04/01 05:49:31;;;;;;;5.05;3.65;;;;;;;2.22;67.27;98851.19;5089651;28;20087;-59
2022/04/01 05:51:58;;;;;;;6.25;4.28;;;;;;;2.22;66.91;98849.41;5088838;28;20063;-59
2022/04/01 05:54:26;;;;;;;5.68;3.67;;;;;;;2.21;67.36;98858.13;5089433;28;20135;-59
2022/04/01 05:56:53;;;;;;;5.63;3.83;;;;;;;2.21;67.48;98860.72;5088323;28;20054;-59
2022/04/01 05:59:22;;;;;;;4.50;3.53;;;;;;;2.22;67.64;98872.78;5089781;28;20044;-59
2022/04/01 06:02:26;;;;;;;8.25;4.45;;;;;;;2.20;67.63;98860.75;5088439;28;20389;-59
2022/04/01 06:05:07;;;;;;;6.28;3.38;;;;;;;2.21;67.65;98872.88;5089689;28;20066;-56
2022/04/01 06:07:44;;;;;;;6.03;3.40;;;;;;;2.24;67.35;98871.91;5089647;28;20044;-58
2022/04/01 06:10:22;;;;;;;6.13;4.18;;;;;;;2.22;67.32;98869.38;5089522;28;20056;-58
2022/04/01 06:13:31;;;;;;;5.65;3.83;;;;;;;2.21;67.46;98876.28;5089819;28;20048;-58
2022/04/01 06:16:11;;;;;;;4.38;3.63;;;;;;;2.25;67.39;98884.84;5090034;28;20102;-61
2022/04/01 06:18:47;;;;;;;4.45;3.22;;;;;;;2.26;67.59;98886.53;5093270;28;20130;-57
2022/04/01 06:21:20;;;;;;;7.18;3.58;;;;;;;2.28;67.63;98889.91;5091901;28;20048;-59
2022/04/01 06:23:50;;;;;;;6.25;3.75;;;;;;;2.30;67.83;98885.50;5093561;28;20405;-59
2022/04/01 06:26:18;;;;;;;4.55;3.55;;;;;;;2.32;67.38;98898.44;5093150;28;20040;-58
2022/04/01 06:29:39;;;;;;;6.32;3.42;;;;;;;2.31;67.58;98892.38;5092215;28;20143;-59
2022/04/01 06:32:20;;;;;;;5.43;2.90;;;;;;;2.34;67.63;98896.63;5070010;28;20385;-59
2022/04/01 06:35:11;;;;;;;5.10;2.80;;;;;;;2.32;67.77;98899.28;5070336;28;20053;-59
2022/04/01 06:37:54;;;;;;;3.30;2.60;;;;;;;2.34;67.59;98905.28;5085174;28;20051;-59
2022/04/01 06:40:22;;;;;;;4.50;3.00;;;;;;;2.39;67.46;98914.66;5074625;28;20548;-59
2022/04/01 06:42:53;;;;;;;3.95;3.10;;;;;;;2.41;67.70;98918.03;5091899;28;20129;-60
2022/04/01 06:45:20;;;;;;;3.67;2.53;;;;;;;2.41;68.15;98913.69;5091960;28;20052;-60
2022/04/01 06:47:47;;;;;;;4.25;2.60;;;;;;;2.43;67.40;98911.84;5093075;28;20764;-59
2022/04/01 06:50:16;;;;;;;3.65;2.97;;;;;;;2.44;67.42;98913.53;5091520;28;20048;-61
2022/04/01 06:52:44;;;;;;;3.88;2.83;;;;;;;2.47;67.91;98923.84;5093003;28;20060;-59
2022/04/01 06:55:13;;;;;;;5.30;3.10;;;;;;;2.49;67.02;98916.00;5091207;28;20511;-60
2022/04/01 06:57:40;;;;;;;3.55;2.63;;;;;;;2.50;67.65;98928.06;5092651;28;20109;-60
2022/04/01 07:00:11;;;;;;;5.07;2.70;;;;;;;2.51;67.77;98941.91;5091217;28;20105;-59
2022/04/01 07:02:43;;;;;;;3.50;2.70;;;;;;;2.55;67.75;98940.91;5092285;28;20498;-60
2022/04/01 07:05:10;;;;;;;4.18;2.50;;;;;;;2.55;67.40;98936.53;5092188;28;20097;-59
2022/04/01 07:07:41;;;;;;;3.83;2.47;;;;;;;2.57;67.46;98952.06;5084471;28;20077;-60
2022/04/01 07:10:10;;;;;;;5.00;2.80;;;;;;;2.59;67.79;98945.91;5083726;28;20369;-58
2022/04/01 07:12:37;;;;;;;4.47;2.45;;;;;;;2.61;67.64;98943.25;5091841;28;20048;-61
2022/04/01 07:15:07;;;;;;;5.30;2.55;;;;;;;2.65;67.86;98951.81;5092425;28;20063;-58
2022/04/01 07:17:38;;;;;;;4.88;2.10;;;;;;;2.67;67.95;98953.44;5090844;28;20484;-59
2022/04/01 07:20:10;;;;;;;2.85;2.10;;;;;;;2.70;67.49;98958.50;5090717;28;20054;-59
2022/04/01 07:22:47;;;;;;;4.32;1.95;;;;;;;2.73;67.18;98958.38;5091595;28;20039;-60
2022/04/01 07:25:14;;;;;;;4.97;2.38;;;;;;;2.77;67.18;98960.88;5091151;28;20101;-59
2022/04/01 07:27:40;;;;;;;4.45;2.22;;;;;;;2.79;67.32;98961.66;5092091;28;20056;-59
2022/04/01 07:30:08;;;;;;;4.25;1.90;;;;;;;2.79;67.07;98962.50;5090855;28;20051;-61
2022/04/01 07:32:36;;;;;;;3.35;1.95;;;;;;;2.80;67.45;98961.59;5092158;28;20087;-60
2022/04/01 07:35:14;;;;;;;3.90;1.80;;;;;;;2.80;67.04;98971.16;5090604;28;20554;-61
2022/04/01 07:37:42;;;;;;;4.30;2.00;;;;;;;2.82;67.40;98965.00;5092452;28;20047;-58
2022/04/01 07:40:19;;;;;;;2.63;1.90;;;;;;;2.84;67.33;98972.75;5090635;28;20048;-58
2022/04/01 07:42:45;;;;;;;3.42;1.85;;;;;;;2.84;67.16;98975.34;5090678;28;20058;-59
2022/04/01 07:45:12;;;;;;;4.40;2.13;;;;;;;2.84;66.59;98967.56;5091634;28;20450;-59
2022/04/01 07:47:42;;;;;;;3.28;1.83;;;;;;;2.85;67.23;98975.25;5091713;28;20503;-59
2022/04/01 07:50:08;;;;;;;6.03;2.50;;;;;;;2.85;66.52;98977.03;5090407;28;20140;-58
2022/04/01 07:52:40;;;;;;;5.20;1.92;;;;;;;2.84;66.71;98973.56;5091677;28;20069;-58
2022/04/01 07:55:11;;;;;;;4.15;1.83;;;;;;;2.85;66.82;98975.25;5091658;28;20136;-59
2022/04/01 07:57:38;;;;;;;5.07;2.35;;;;;;;2.89;67.40;98988.16;5089954;28;20048;-61
2022/04/01 08:00:12;;;;;;;5.13;2.20;;;;;;;2.90;67.52;98989.84;5089809;28;20691;-58
2022/04/01 08:02:42;;;;;;;4.63;2.50;;;;;;;2.91;67.69;98984.59;5091735;28;20079;-60
2022/04/01 08:05:09;;;;;;;4.68;2.40;;;;;;;2.93;67.38;98980.19;5090324;28;20174;-59
2022/04/01 08:07:36;;;;;;;3.70;1.90;;;;;;;2.94;66.89;98987.06;5091315;28;20056;-59
2022/04/01 08:10:05;;;;;;;5.57;2.70;;;;;;;2.95;67.44;98988.75;5091022;28;20500;-59
2022/04/01 08:12:39;;;;;;;3.85;2.25;;;;;;;2.96;67.19;98992.22;5090001;28;20040;-59
2022/04/01 08:15:07;;;;;;;4.70;2.28;;;;;;;2.97;67.10;98999.97;5091002;28;20048;-58
2022/04/01 08:17:33;;;;;;;4.57;2.72;;;;;;;3.00;66.99;98988.59;5090093;28;20087;-59
2022/04/01 08:20:00;;;;;;;4.63;2.63;;;;;;;3.00;67.42;98997.22;5091090;28;20052;-60
2022/04/01 08:22:26;;;;;;;7.03;2.55;;;;;;;3.02;67.70;99002.38;5091020;28;20109;-59
2022/04/01 08:24:53;;;;;;;6.13;2.72;;;;;;;3.04;67.64;99004.91;5090986;28;20048;-59
2022/04/01 08:27:20;;;;;;;5.75;2.70;;;;;;;3.05;67.12;99001.41;5089943;28;20056;-59
2022/04/01 08:29:46;;;;;;;4.38;2.63;;;;;;;3.07;66.72;99020.41;5091026;28;20109;-61
2022/04/01 08:32:13;;;;;;;6.07;2.40;;;;;;;3.08;66.76;99017.75;5091137;28;20040;-59
2022/04/01 08:34:40;;;;;;;4.60;2.60;;;;;;;3.10;67.03;99020.31;5091056;28;20059;-58
2022/04/01 08:37:07;;;;;;;4.40;2.42;;;;;;;3.13;67.53;99031.44;5090900;28;20679;-58
2022/04/01 08:39:35;;;;;;;4.68;2.78;;;;;;;3.16;67.37;99027.88;5090531;28;20729;-58
2022/04/01 08:42:04;;;;;;;6.93;3.50;;;;;;;3.16;67.31;99035.66;5090885;28;20052;-59
2022/04/01 08:44:31;;;;;;;6.78;3.20;;;;;;;3.19;66.88;99037.28;5091084;28;20048;-60
2022/04/01 08:46:59;;;;;;;5.20;2.70;;;;;;;3.20;67.14;99045.03;5090902;28;21086;-60
2022/04/01 08:49:26;;;;;;;5.70;2.45;;;;;;;3.21;66.91;99040.69;5089156;28;20526;-60
2022/04/01 08:51:53;;;;;;;6.57;3.15;;;;;;;3.24;67.24;99053.56;5090396;28;20503;-59
2022/04/01 08:54:19;;;;;;;6.75;2.75;;;;;;;3.23;67.18;99057.94;5090762;28;20056;-59
2022/04/01 08:56:46;;;;;;;8.13;2.67;;;;;;;3.24;66.71;99053.56;5090544;28;20052;-60
2022/04/01 08:59:13;;;;;;;5.32;3.22;;;;;;;3.24;67.15;99057.03;5090222;28;20109;-58
2022/04/01 09:01:43;;;;;;;7.28;3.08;;;;;;;3.24;66.81;99070.03;5090152;28;20051;-60
2022/04/01 09:04:19;;;;;;;6.65;2.90;;;;;;;3.23;66.53;99073.56;5089436;28;20079;-58
2022/04/01 09:06:45;;;;;;;5.43;3.10;;;;;;;3.28;67.37;99085.53;5090545;28;20142;-59
2022/04/01 09:09:24;;;;;;;6.32;3.10;;;;;;;3.28;67.10;99082.94;5089970;28;20047;-61
2022/04/01 09:12:08;;;;;;;4.15;3.08;;;;;;;3.31;66.60;99085.41;5090483;28;20102;-60
2022/04/01 09:14:35;;;;;;;5.70;2.92;;;;;;;3.38;67.33;99086.88;5089143;28;20055;-61
2022/04/01 09:17:03;;;;;;;5.80;2.90;;;;;;;3.41;67.65;99080.69;5090135;28;20084;-60
2022/04/01 09:19:32;;;;;;;4.70;3.38;;;;;;;3.44;67.04;99091.00;5089030;28;20044;-58
2022/04/01 09:22:17;;;;;;;5.75;3.00;;;;;;;3.44;66.31;99099.63;5088982;28;20484;-59
2022/04/01 09:25:03;;;;;;;3.80;2.72;;;;;;;3.47;66.22;99096.91;5090235;28;20048;-59
2022/04/01 09:27:59;;;;;;;4.85;3.28;;;;;;;3.51;66.65;99101.09;5088802;28;20052;-59
2022/04/01 09:30:31;;;;;;;7.35;2.97;;;;;;;3.57;66.97;99100.03;5085091;28;20052;-60
2022/04/01 09:33:00;;;;;;;6.95;2.63;;;;;;;3.60;66.78;99102.50;5088922;28;20121;-61
2022/04/01 09:35:31;;;;;;;4.63;3.10;;;;;;;3.63;66.60;99106.75;5090026;28;20052;-59
2022/04/01 09:38:01;;;;;;;4.63;2.83;;;;;;;3.68;67.29;99112.63;5088708;28;20070;-61
2022/04/01 09:40:28;;;;;;;5.57;3.20;;;;;;;3.72;66.77;99113.34;5089995;28;20047;-59
2022/04/01 09:42:59;;;;;;;4.60;3.00;;;;;;;3.76;66.88;99112.31;5090090;28;20052;-59
2022/04/01 09:45:32;;;;;;;6.78;3.25;;;;;;;3.77;66.01;99109.66;5088671;28;20589;-61
2022/04/01 09:48:00;;;;;;;5.78;3.08;;;;;;;3.83;66.77;99118.13;5090025;28;20109;-60
2022/04/01 09:50:33;;;;;;;4.53;3.25;;;;;;;3.85;66.28;99111.13;5092343;28;20055;-59
2022/04/01 09:53:08;;;;;;;5.25;3.20;;;;;;;3.85;65.13;99118.94;5093076;28;20051;-59
2022/04/01 09:55:37;;;;;;;5.43;3.50;;;;;;;3.88;66.23;99126.59;5092877;28;20059;-59
2022/04/01 09:58:05;;;;;;;5.20;3.40;;;;;;;3.88;66.08;99131.78;5092530;28;20052;-59
2022/04/01 10:00:33;;;;;;;4.13;2.97;;;;;;;3.88;66.15;99123.97;5092170;28;20040;-58
2022/04/01 10:03:00;;;;;;;7.30;3.97;;;;;;;3.91;66.46;99123.88;5093608;28;20055;-59
2022/04/01 10:05:27;;;;;;;5.60;3.10;;;;;;;3.92;65.88;99109.94;5093724;28;20052;-60
2022/04/01 10:07:56;;;;;;;6.57;3.45;;;;;;;3.93;65.76;99129.88;5093441;28;20102;-59
2022/04/01 10:10:27;;;;;;;8.27;3.78;;;;;;;3.93;65.75;99140.31;5092202;28;20051;-59
2022/04/01 10:13:00;;;;;;;7.53;4.65;;;;;;;3.93;65.80;99145.50;5092181;28;20101;-59
2022/04/01 10:15:30;;;;;;;10.15;4.05;;;;;;;3.94;65.83;99155.00;5092078;28;20105;-59
2022/04/01 10:17:58;;;;;;;5.30;3.22;;;;;;;3.96;65.96;99153.19;5093403;28;20636;-59
2022/04/01 10:20:37;;;;;;;4.38;3.45;;;;;;;3.96;66.07;99155.78;5093255;28;20151;-59
2022/04/01 10:23:14;;;;;;;5.18;3.40;;;;;;;4.00;65.90;99156.53;5092051;28;20044;-59
2022/04/01 10:25:51;;;;;;;5.30;3.08;;;;;;;4.06;66.42;99158.88;5092051;28;20040;-59
2022/04/01 10:28:19;;;;;;;6.53;3.33;;;;;;;4.09;66.36;99150.94;5092078;28;20496;-59
2022/04/01 10:31:13;;;;;;;5.32;3.60;;;;;;;4.11;65.75;99153.50;5093113;28;20056;-60
2022/04/01 10:33:40;;;;;;;5.45;3.28;;;;;;;4.19;66.14;99153.19;5092166;28;20079;-58
2022/04/01 10:36:34;;;;;;;7.15;3.28;;;;;;;4.20;65.84;99150.50;5091953;28;20051;-58
2022/04/01 10:39:07;;;;;;;8.55;3.40;;;;;;;4.27;65.96;99159.75;5092355;28;20079;-59
2022/04/01 10:41:34;;;;;;;8.52;3.20;;;;;;;4.32;66.03;99161.31;5091790;28;20048;-59
2022/04/01 10:44:02;;;;;;;6.15;3.10;;;;;;;4.34;65.84;99155.13;5091757;28;20058;-60
2022/04/01 10:46:29;;;;;;;5.95;3.72;;;;;;;4.38;65.93;99154.09;5091717;28;20063;-60
2022/04/01 10:52:19;;;;;;;5.15;3.60;;;;;;;4.47;64.92;99157.25;5092796;28;20093;-58
2022/04/01 10:54:48;;;;;;;5.45;3.45;;;;;;;4.54;65.70;99158.69;5075234;28;20488;-59
2022/04/01 10:57:30;;;;;;;12.07;4.05;;;;;;;4.55;64.09;99165.59;5091855;28;20396;-57
2022/04/01 11:00:04;;;;;;;6.70;3.58;;;;;;;4.59;64.84;99169.78;5091867;28;20060;-59
2022/04/01 11:02:30;;;;;;;4.20;3.25;;;;;;;4.64;65.45;99173.03;5091354;28;20576;-58
2022/04/01 11:05:00;;;;;;;6.88;3.47;;;;;;;4.66;65.22;99173.81;5074542;28;20052;-59
2022/04/01 11:07:27;;;;;;;6.05;4.22;;;;;;;4.66;64.88;99186.88;5092375;28;20056;-59
2022/04/01 11:10:00;;;;;;;5.47;3.50;;;;;;;4.65;64.78;99171.28;5092464;28;20056;-59
2022/04/01 11:12:39;;;;;;;5.72;3.42;;;;;;;4.62;64.23;99179.22;5091274;28;20093;-59
2022/04/01 11:15:09;;;;;;;5.80;3.45;;;;;;;4.65;64.89;99181.72;5091017;28;20048;-56
2022/04/01 11:17:36;;;;;;;6.43;3.47;;;;;;;4.65;65.61;99173.88;5092354;28;20048;-61
2022/04/01 11:20:07;;;;;;;7.75;3.65;;;;;;;4.67;65.06;99172.06;5090535;28;20575;-60
2022/04/01 11:22:39;;;;;;;7.22;3.80;;;;;;;4.73;66.17;99174.41;5091998;28;20109;-59
2022/04/01 11:25:08;;;;;;;6.07;4.10;;;;;;;4.79;66.27;99174.13;5091042;28;20045;-59
2022/04/01 11:27:34;;;;;;;5.00;3.50;;;;;;;4.88;66.30;99177.28;5090837;28;20458;-59
2022/04/01 11:30:05;;;;;;;4.43;3.40;;;;;;;4.94;65.70;99175.25;5091727;28;20044;-60
2022/04/01 11:32:37;;;;;;;5.18;3.75;;;;;;;5.03;66.02;99174.00;5091687;28;20058;-61
2022/04/01 11:35:09;;;;;;;10.07;4.18;;;;;;;5.12;65.59;99180.56;5092055;28;20059;-59
2022/04/01 11:37:42;;;;;;;7.85;3.50;;;;;;;5.21;65.75;99184.56;5090932;28;20558;-59
2022/04/01 11:40:14;;;;;;;4.13;2.70;;;;;;;5.30;65.89;99178.94;5090492;28;20048;-60
2022/04/01 11:43:02;;;;;;;5.20;3.63;;;;;;;5.35;64.64;99169.13;5091518;28;20396;-59
2022/04/01 11:46:04;;;;;;;9.23;3.95;;;;;;;5.41;64.39;99169.75;5091930;28;20040;-59
2022/04/01 11:48:37;;;;;;;6.22;3.65;;;;;;;5.46;65.34;99181.69;5090541;28;20099;-59
2022/04/01 11:51:33;;;;;;;7.47;4.13;;;;;;;5.47;65.02;99178.16;5090137;28;20129;-59
2022/04/01 11:54:01;;;;;;;8.40;3.50;;;;;;;5.52;66.05;99175.34;5091305;28;20458;-59
2022/04/01 11:56:28;;;;;;;6.07;3.92;;;;;;;5.56;66.26;99174.28;5090215;28;20055;-60
2022/04/01 11:58:58;;;;;;;5.50;3.55;;;;;;;5.61;66.32;99174.09;5091479;28;20116;-61
2022/04/01 12:01:28;;;;;;;5.75;4.20;;;;;;;5.67;66.11;99160.75;5089681;28;20048;-59
2022/04/01 12:04:09;;;;;;;5.22;3.90;;;;;;;5.74;64.81;99172.59;5091499;28;20051;-60
2022/04/01 12:09:33;;;;;;;6.07;3.45;;;;;;;5.87;64.80;99167.63;5091258;28;20144;-59